createdAt,value
2023-07-29T00:00:46.582Z,17.75
2023-07-29T00:03:13.453Z,17.73
2023-07-29T00:05:40.656Z,17.71
2023-07-29T00:08:07.537Z,17.62
2023-07-29T00:10:37.514Z,17.67
2023-07-29T00:13:05.197Z,17.61
2023-07-29T00:15:32.072Z,17.52
2023-07-29T00:17:58.860Z,17.65
2023-07-29T00:20:25.663Z,17.58
2023-07-29T00:22:55.050Z,17.65
2023-07-29T00:25:22.885Z,17.64
2023-07-29T00:27:49.559Z,17.66
2023-07-29T00:30:16.332Z,17.67
2023-07-29T00:32:43.061Z,17.65
2023-07-29T00:35:09.881Z,17.74
2023-07-29T00:37:38.694Z,17.79
2023-07-29T00:40:14.286Z,17.81
2023-07-29T00:42:41.082Z,17.73
2023-07-29T00:45:08.936Z,17.75
2023-07-29T00:47:35.752Z,17.74
2023-07-29T00:50:04.274Z,17.77
2023-07-29T00:52:30.936Z,17.80
2023-07-29T00:54:57.646Z,17.74
2023-07-29T00:57:26.528Z,17.78
2023-07-29T00:59:53.510Z,17.66
2023-07-29T01:02:20.220Z,17.69
2023-07-29T01:04:46.975Z,17.74
2023-07-29T01:07:51.377Z,17.70
2023-07-29T01:10:36.289Z,17.70
2023-07-29T01:13:39.200Z,17.68
2023-07-29T01:16:11.245Z,17.62
2023-07-29T01:18:39.252Z,17.64
2023-07-29T01:21:09.200Z,17.71
2023-07-29T01:23:36.908Z,17.68
2023-07-29T01:26:04.602Z,17.72
2023-07-29T01:28:31.924Z,17.66
2023-07-29T01:31:12.066Z,17.58
2023-07-29T01:33:45.801Z,17.62
2023-07-29T01:36:20.767Z,17.67
2023-07-29T01:38:47.326Z,17.59
2023-07-29T01:41:14.956Z,17.56
2023-07-29T01:43:45.326Z,17.44
2023-07-29T01:46:15.133Z,17.52
2023-07-29T01:48:42.357Z,17.48
2023-07-29T01:51:10.564Z,17.55
2023-07-29T01:53:37.321Z,17.50
2023-07-29T01:56:04.235Z,17.47
2023-07-29T01:58:30.953Z,17.35
2023-07-29T02:00:57.844Z,17.43
2023-07-29T02:03:24.651Z,17.51
2023-07-29T02:05:51.389Z,17.45
2023-07-29T02:08:18.185Z,17.50
2023-07-29T02:10:46.477Z,17.37
2023-07-29T02:13:13.881Z,17.48
2023-07-29T02:15:40.605Z,17.41
2023-07-29T02:18:08.647Z,17.40
2023-07-29T02:20:35.380Z,17.40
2023-07-29T02:23:02.242Z,17.44
2023-07-29T02:25:28.872Z,17.57
2023-07-29T02:27:55.726Z,17.44
2023-07-29T02:30:22.763Z,17.43
2023-07-29T02:32:49.641Z,17.39
2023-07-29T02:35:16.493Z,17.43
2023-07-29T02:37:43.294Z,17.36
2023-07-29T02:40:10.534Z,17.47
2023-07-29T02:42:37.436Z,17.39
2023-07-29T02:45:04.601Z,17.46
2023-07-29T02:47:31.403Z,17.46
2023-07-29T02:49:58.089Z,17.44
2023-07-29T02:52:24.736Z,17.39
2023-07-29T02:54:51.440Z,17.47
2023-07-29T02:57:18.704Z,17.43
2023-07-29T02:59:45.492Z,17.46
2023-07-29T03:02:12.636Z,17.45
2023-07-29T03:04:39.368Z,17.54
2023-07-29T03:07:06.128Z,17.28
2023-07-29T03:09:34.222Z,17.32
2023-07-29T03:12:01.822Z,17.44
2023-07-29T03:14:28.970Z,17.48
2023-07-29T03:16:55.833Z,17.31
2023-07-29T03:19:22.506Z,17.30
2023-07-29T03:21:49.375Z,17.32
2023-07-29T03:24:16.171Z,17.02
2023-07-29T03:26:45.525Z,17.07
2023-07-29T03:29:13.480Z,17.20
2023-07-29T03:31:40.153Z,17.22
2023-07-29T03:34:06.834Z,17.21
2023-07-29T03:36:34.194Z,17.27
2023-07-29T03:39:01.723Z,18.33
2023-07-29T03:41:28.396Z,18.40
2023-07-29T03:43:55.076Z,17.86
2023-07-29T03:46:22.973Z,17.84
2023-07-29T03:48:49.745Z,17.97
2023-07-29T03:51:16.449Z,17.61
2023-07-29T03:53:43.153Z,18.62
2023-07-29T03:56:09.859Z,19.04
2023-07-29T03:58:36.658Z,19.87
2023-07-29T04:01:03.376Z,20.79
2023-07-29T04:03:30.219Z,20.76
2023-07-29T04:05:56.961Z,20.96
2023-07-29T04:08:26.356Z,20.55
2023-07-29T04:10:53.015Z,21.15
2023-07-29T04:13:19.718Z,20.30
2023-07-29T04:15:46.516Z,20.00
2023-07-29T04:18:13.215Z,20.12
2023-07-29T04:20:39.964Z,21.49
2023-07-29T04:23:06.626Z,21.56
2023-07-29T04:25:33.314Z,20.55
2023-07-29T04:28:00.050Z,21.48
2023-07-29T04:30:26.885Z,22.01
2023-07-29T04:32:53.675Z,22.59
2023-07-29T04:35:20.462Z,22.39
2023-07-29T04:37:49.323Z,21.51
2023-07-29T04:40:16.217Z,20.65
2023-07-29T04:42:42.940Z,20.53
2023-07-29T04:45:09.830Z,20.13
2023-07-29T04:47:36.545Z,19.90
2023-07-29T04:50:03.393Z,19.51
2023-07-29T04:52:30.088Z,19.21
2023-07-29T04:54:56.881Z,19.23
2023-07-29T04:57:23.568Z,19.15
2023-07-29T04:59:50.568Z,19.27
2023-07-29T05:02:17.287Z,18.90
2023-07-29T05:04:44.026Z,18.74
2023-07-29T05:07:10.825Z,18.94
2023-07-29T05:09:37.679Z,19.40
2023-07-29T05:12:04.792Z,20.16
2023-07-29T05:14:31.500Z,20.58
2023-07-29T05:16:58.794Z,20.89
2023-07-29T05:19:25.420Z,20.85
2023-07-29T05:21:52.134Z,21.35
2023-07-29T05:24:18.834Z,21.64
2023-07-29T05:26:45.544Z,20.79
2023-07-29T05:29:12.231Z,20.72
2023-07-29T05:31:38.867Z,20.20
2023-07-29T05:34:05.562Z,19.87
2023-07-29T05:36:32.380Z,19.95
2023-07-29T05:38:59.019Z,20.32
2023-07-29T05:41:27.310Z,19.73
2023-07-29T05:43:54.024Z,19.78
2023-07-29T05:46:20.695Z,19.77
2023-07-29T05:48:47.383Z,19.58
2023-07-29T05:51:14.052Z,19.83
2023-07-29T05:53:40.761Z,19.57
2023-07-29T05:56:07.471Z,19.60
2023-07-29T05:58:34.266Z,19.89
2023-07-29T06:01:01.057Z,20.51
2023-07-29T06:03:28.237Z,19.88
2023-07-29T06:05:55.630Z,20.36
2023-07-29T06:08:22.423Z,20.01
2023-07-29T06:10:49.164Z,19.87
2023-07-29T06:13:15.985Z,19.78
2023-07-29T06:15:42.878Z,20.25
2023-07-29T06:18:09.684Z,20.11
2023-07-29T06:20:36.514Z,20.16
2023-07-29T06:23:03.372Z,20.29
2023-07-29T06:25:30.222Z,20.22
2023-07-29T06:27:56.915Z,20.25
2023-07-29T06:30:23.570Z,20.42
2023-07-29T06:32:50.382Z,21.08
2023-07-29T06:35:17.195Z,20.63
2023-07-29T06:37:43.943Z,20.16
2023-07-29T06:40:11.137Z,20.07
2023-07-29T06:42:38.335Z,20.48
2023-07-29T06:45:06.737Z,20.54
2023-07-29T06:47:33.567Z,20.56
2023-07-29T06:50:00.375Z,20.84
2023-07-29T06:52:27.132Z,20.58
2023-07-29T06:54:53.806Z,20.74
2023-07-29T06:57:20.575Z,20.61
2023-07-29T06:59:47.284Z,20.83
2023-07-29T07:02:14.398Z,21.28
2023-07-29T07:04:41.140Z,20.90
2023-07-29T07:07:07.930Z,21.52
2023-07-29T07:09:34.558Z,21.70
2023-07-29T07:12:01.200Z,21.12
2023-07-29T07:14:30.869Z,21.20
2023-07-29T07:16:57.593Z,22.06
2023-07-29T07:19:24.305Z,21.80
2023-07-29T07:21:51.090Z,21.84
2023-07-29T07:24:17.853Z,21.57
2023-07-29T07:26:44.608Z,22.14
2023-07-29T07:29:11.292Z,22.60
2023-07-29T07:31:38.091Z,22.71
2023-07-29T07:34:05.201Z,23.23
2023-07-29T07:36:32.523Z,23.49
2023-07-29T07:38:59.346Z,22.85
2023-07-29T07:41:26.064Z,22.08
2023-07-29T07:43:52.757Z,21.97
2023-07-29T07:46:19.579Z,22.05
2023-07-29T07:48:46.353Z,22.18
2023-07-29T07:51:14.034Z,22.75
2023-07-29T07:53:41.475Z,23.11
2023-07-29T07:56:08.538Z,22.30
2023-07-29T07:58:35.707Z,21.71
2023-07-29T08:01:09.267Z,21.86
2023-07-29T08:03:36.671Z,22.52
2023-07-29T08:06:03.839Z,22.38
2023-07-29T08:08:31.485Z,22.61
2023-07-29T08:10:58.663Z,22.72
2023-07-29T08:13:25.835Z,22.54
2023-07-29T08:15:54.000Z,22.45
2023-07-29T08:18:21.024Z,22.12
2023-07-29T08:20:59.244Z,22.48
2023-07-29T08:23:28.737Z,22.69
2023-07-29T08:25:57.636Z,22.71
2023-07-29T08:28:25.074Z,22.20
2023-07-29T08:30:52.257Z,22.31
2023-07-29T08:33:18.995Z,22.25
2023-07-29T08:35:45.736Z,22.97
2023-07-29T08:38:12.525Z,23.24
2023-07-29T08:40:45.954Z,22.88
2023-07-29T08:43:13.598Z,22.72
2023-07-29T08:45:41.203Z,22.73
2023-07-29T08:48:10.239Z,22.78
2023-07-29T08:50:38.086Z,22.53
2023-07-29T08:53:06.692Z,23.03
2023-07-29T08:55:34.494Z,23.45
2023-07-29T08:58:02.267Z,23.71
2023-07-29T09:00:29.432Z,23.20
2023-07-29T09:02:56.916Z,23.73
2023-07-29T09:05:23.744Z,23.44
2023-07-29T09:07:55.211Z,23.45
2023-07-29T09:10:27.460Z,22.94
2023-07-29T09:12:54.499Z,23.13
2023-07-29T09:15:31.785Z,23.04
2023-07-29T09:18:03.224Z,22.98
2023-07-29T09:20:30.136Z,22.86
2023-07-29T09:23:00.558Z,23.27
2023-07-29T09:25:28.508Z,23.54
2023-07-29T09:28:11.002Z,23.88
2023-07-29T09:30:42.277Z,24.24
2023-07-29T09:33:12.021Z,23.51
2023-07-29T09:35:39.737Z,23.84
2023-07-29T09:38:07.257Z,24.21
2023-07-29T09:40:38.780Z,23.67
2023-07-29T09:43:06.451Z,23.34
2023-07-29T09:45:35.126Z,23.80
2023-07-29T09:48:02.425Z,23.85
2023-07-29T09:50:29.498Z,23.30
2023-07-29T09:52:57.287Z,23.39
2023-07-29T09:55:24.938Z,23.17
2023-07-29T09:57:57.419Z,23.25
2023-07-29T10:00:24.629Z,23.51
2023-07-29T10:02:52.296Z,23.97
2023-07-29T10:05:19.188Z,23.90
2023-07-29T10:07:46.402Z,24.23
2023-07-29T10:10:13.467Z,24.42
2023-07-29T10:12:40.994Z,24.29
2023-07-29T10:15:08.194Z,23.84
2023-07-29T10:17:37.364Z,23.95
2023-07-29T10:20:11.402Z,24.54
2023-07-29T10:22:39.956Z,24.38
2023-07-29T10:25:26.049Z,23.85
2023-07-29T10:28:07.217Z,24.19
2023-07-29T10:30:34.503Z,24.25
2023-07-29T10:33:04.741Z,24.43
2023-07-29T10:35:34.426Z,24.40
2023-07-29T10:38:02.334Z,24.29
2023-07-29T10:40:58.021Z,24.16
2023-07-29T10:43:42.942Z,24.42
2023-07-29T10:46:20.682Z,24.44
2023-07-29T10:48:58.174Z,23.96
2023-07-29T10:51:34.115Z,24.11
2023-07-29T10:54:17.826Z,24.24
2023-07-29T10:56:50.614Z,24.31
2023-07-29T10:59:17.827Z,24.39
2023-07-29T11:01:55.864Z,24.43
2023-07-29T11:04:28.273Z,24.32
2023-07-29T11:07:11.542Z,23.85
2023-07-29T11:09:41.587Z,24.22
2023-07-29T11:12:49.262Z,24.07
2023-07-29T11:15:29.681Z,24.43
2023-07-29T11:18:01.317Z,24.30
2023-07-29T11:20:33.459Z,24.35
2023-07-29T11:23:02.027Z,24.47
2023-07-29T11:25:30.385Z,24.48
2023-07-29T11:27:58.884Z,24.22
2023-07-29T11:30:30.441Z,24.24
2023-07-29T11:32:57.998Z,24.13
2023-07-29T11:35:25.365Z,24.19
2023-07-29T11:37:53.804Z,24.43
2023-07-29T11:40:24.287Z,24.39
2023-07-29T11:42:52.917Z,24.52
2023-07-29T11:45:20.909Z,24.31
2023-07-29T11:47:48.177Z,24.72
2023-07-29T11:50:16.317Z,24.73
2023-07-29T11:52:47.925Z,24.46
2023-07-29T11:55:16.021Z,24.92
2023-07-29T11:57:44.412Z,25.55
2023-07-29T12:00:13.586Z,25.48
2023-07-29T12:02:42.556Z,25.75
2023-07-29T12:05:10.871Z,25.78
2023-07-29T12:07:39.797Z,26.12
2023-07-29T12:10:07.287Z,25.41
2023-07-29T12:12:34.065Z,25.27
2023-07-29T12:15:01.763Z,25.05
2023-07-29T12:17:28.562Z,25.35
2023-07-29T12:19:56.326Z,25.86
2023-07-29T12:22:23.203Z,26.09
2023-07-29T12:24:52.540Z,25.42
2023-07-29T12:27:19.399Z,25.47
2023-07-29T12:29:47.911Z,25.83
2023-07-29T12:32:15.323Z,25.75
2023-07-29T12:34:42.608Z,25.88
2023-07-29T12:37:09.340Z,25.73
2023-07-29T12:39:42.866Z,25.19
2023-07-29T12:42:09.576Z,25.25
2023-07-29T12:44:38.132Z,25.50
2023-07-29T12:47:06.837Z,25.36
2023-07-29T12:49:34.985Z,25.00
2023-07-29T12:52:01.978Z,24.99
2023-07-29T12:54:28.841Z,24.75
2023-07-29T12:56:55.496Z,25.23
2023-07-29T12:59:22.229Z,25.28
2023-07-29T13:01:49.581Z,25.35
2023-07-29T13:04:16.425Z,25.15
2023-07-29T13:06:43.148Z,25.14
2023-07-29T13:09:09.898Z,25.27
2023-07-29T13:11:36.674Z,25.51
2023-07-29T13:14:03.379Z,25.84
2023-07-29T13:16:30.376Z,25.76
2023-07-29T13:18:57.647Z,25.92
2023-07-29T13:21:24.688Z,25.58
2023-07-29T13:23:51.605Z,25.82
2023-07-29T13:26:18.394Z,25.81
2023-07-29T13:28:45.065Z,25.30
2023-07-29T13:31:11.909Z,25.34
2023-07-29T13:33:38.622Z,24.90
2023-07-29T13:36:05.482Z,25.09
2023-07-29T13:38:32.257Z,24.97
2023-07-29T13:40:59.078Z,24.76
2023-07-29T13:43:25.978Z,25.11
2023-07-29T13:45:52.762Z,25.07
2023-07-29T13:48:23.766Z,24.53
2023-07-29T13:50:50.649Z,24.71
2023-07-29T13:53:17.254Z,24.95
2023-07-29T13:55:43.900Z,25.22
2023-07-29T13:58:10.591Z,24.95
2023-07-29T14:00:37.384Z,24.90
2023-07-29T14:03:04.246Z,24.77
2023-07-29T14:05:30.934Z,24.64
2023-07-29T14:07:57.724Z,24.78
2023-07-29T14:10:24.756Z,24.99
2023-07-29T14:12:52.824Z,25.12
2023-07-29T14:15:19.740Z,25.44
2023-07-29T14:17:46.564Z,25.37
2023-07-29T14:20:13.548Z,25.25
2023-07-29T14:22:40.307Z,25.38
2023-07-29T14:25:08.070Z,25.43
2023-07-29T14:27:34.712Z,25.11
2023-07-29T14:30:01.537Z,24.95
2023-07-29T14:32:28.537Z,24.86
2023-07-29T14:34:55.322Z,24.74
2023-07-29T14:37:22.093Z,24.55
2023-07-29T14:39:48.852Z,24.40
2023-07-29T14:42:16.301Z,24.58
2023-07-29T14:44:43.107Z,24.45
2023-07-29T14:47:09.995Z,24.48
2023-07-29T14:49:36.697Z,24.49
2023-07-29T14:52:03.639Z,24.47
2023-07-29T14:54:30.309Z,24.34
2023-07-29T14:56:56.935Z,24.63
2023-07-29T14:59:23.644Z,25.12
2023-07-29T15:01:50.391Z,25.09
2023-07-29T15:04:17.626Z,25.29
2023-07-29T15:06:44.432Z,25.80
2023-07-29T15:09:11.163Z,25.67
2023-07-29T15:11:37.923Z,25.51
2023-07-29T15:14:07.633Z,26.25
2023-07-29T15:16:36.730Z,26.92
2023-07-29T15:19:05.569Z,27.21
2023-07-29T15:21:34.718Z,27.32
2023-07-29T15:24:01.699Z,26.77
2023-07-29T15:26:29.402Z,26.29
2023-07-29T15:28:56.213Z,27.17
2023-07-29T15:31:23.001Z,26.73
2023-07-29T15:33:49.791Z,27.37
2023-07-29T15:36:16.556Z,27.58
2023-07-29T15:38:43.284Z,27.50
2023-07-29T15:41:10.051Z,27.15
2023-07-29T15:43:36.942Z,27.35
2023-07-29T15:46:03.905Z,27.37
2023-07-29T15:48:30.738Z,26.64
2023-07-29T15:50:57.416Z,26.72
2023-07-29T15:53:25.766Z,26.40
2023-07-29T15:55:52.683Z,26.30
2023-07-29T15:58:19.534Z,26.24
2023-07-29T16:00:46.278Z,26.44
2023-07-29T16:03:13.151Z,26.41
2023-07-29T16:05:39.947Z,26.65
2023-07-29T16:08:06.695Z,26.68
2023-07-29T16:10:33.396Z,26.92
2023-07-29T16:13:01.375Z,26.41
2023-07-29T16:15:28.056Z,26.58
2023-07-29T16:17:55.770Z,26.17
2023-07-29T16:20:22.711Z,25.98
2023-07-29T16:22:49.963Z,26.57
2023-07-29T16:25:16.603Z,26.49
2023-07-29T16:27:43.370Z,26.24
2023-07-29T16:30:10.264Z,26.34
2023-07-29T16:32:37.073Z,26.44
2023-07-29T16:35:03.974Z,26.73
2023-07-29T16:37:31.334Z,26.67
2023-07-29T16:39:58.148Z,26.37
2023-07-29T16:42:24.898Z,26.27
2023-07-29T16:44:51.566Z,26.27
2023-07-29T16:47:18.384Z,26.29
2023-07-29T16:49:45.358Z,25.78
2023-07-29T16:52:20.963Z,26.01
2023-07-29T16:54:47.611Z,26.45
2023-07-29T16:57:14.377Z,26.44
2023-07-29T16:59:49.526Z,25.77
2023-07-29T17:02:16.550Z,25.88
2023-07-29T17:04:43.624Z,25.44
2023-07-29T17:07:10.395Z,25.76
2023-07-29T17:09:37.088Z,25.30
2023-07-29T17:12:04.230Z,25.20
2023-07-29T17:14:31.124Z,25.00
2023-07-29T17:16:57.822Z,24.90
2023-07-29T17:19:24.564Z,24.92
2023-07-29T17:21:51.390Z,24.62
2023-07-29T17:24:18.064Z,24.64
2023-07-29T17:26:44.762Z,24.52
2023-07-29T17:29:14.410Z,24.33
2023-07-29T17:31:44.659Z,24.25
2023-07-29T17:34:11.782Z,23.52
2023-07-29T17:36:39.360Z,23.58
2023-07-29T17:39:06.900Z,23.38
2023-07-29T17:41:34.139Z,23.21
2023-07-29T17:44:00.905Z,23.17
2023-07-29T17:46:27.647Z,22.94
2023-07-29T17:48:54.457Z,22.95
2023-07-29T17:51:21.276Z,22.79
2023-07-29T17:53:47.907Z,22.65
2023-07-29T17:56:14.758Z,22.59
2023-07-29T17:58:41.556Z,22.55
2023-07-29T18:01:08.437Z,22.49
2023-07-29T18:03:35.158Z,22.27
2023-07-29T18:06:01.884Z,22.31
2023-07-29T18:08:28.667Z,22.27
2023-07-29T18:10:57.461Z,22.13
2023-07-29T18:13:27.016Z,22.15
2023-07-29T18:15:54.534Z,22.22
2023-07-29T18:18:25.984Z,22.15
2023-07-29T18:20:56.017Z,21.46
2023-07-29T18:23:24.380Z,21.95
2023-07-29T18:25:56.677Z,22.19
2023-07-29T18:28:23.373Z,22.16
2023-07-29T18:30:52.946Z,22.11
2023-07-29T18:33:19.942Z,22.06
2023-07-29T18:35:47.878Z,22.06
2023-07-29T18:38:14.668Z,22.01
2023-07-29T18:40:42.370Z,21.98
2023-07-29T18:43:10.769Z,21.95
2023-07-29T18:45:37.956Z,21.77
2023-07-29T18:48:05.804Z,21.68
2023-07-29T18:50:32.867Z,21.43
2023-07-29T18:52:59.951Z,21.40
2023-07-29T18:55:28.692Z,21.23
2023-07-29T18:57:56.235Z,21.10
2023-07-29T19:00:23.337Z,21.19
2023-07-29T19:02:50.324Z,21.33
2023-07-29T19:05:17.167Z,21.47
2023-07-29T19:07:43.863Z,21.45
2023-07-29T19:10:10.813Z,21.43
2023-07-29T19:12:39.596Z,21.45
2023-07-29T19:15:10.144Z,21.25
2023-07-29T19:17:36.959Z,21.30
2023-07-29T19:20:05.558Z,21.28
2023-07-29T19:22:32.245Z,20.84
2023-07-29T19:25:00.193Z,20.76
2023-07-29T19:27:27.599Z,20.71
2023-07-29T19:29:54.341Z,20.97
2023-07-29T19:32:22.707Z,21.06
2023-07-29T19:34:58.287Z,20.72
2023-07-29T19:37:26.547Z,20.65
2023-07-29T19:39:53.821Z,20.58
2023-07-29T19:42:21.584Z,20.33
2023-07-29T19:44:48.949Z,20.31
2023-07-29T19:47:15.822Z,20.38
2023-07-29T19:49:42.874Z,20.28
2023-07-29T19:52:09.623Z,20.22
2023-07-29T19:54:36.392Z,20.17
2023-07-29T19:57:03.298Z,20.11
2023-07-29T19:59:42.129Z,19.92
2023-07-29T20:02:15.021Z,19.95
2023-07-29T20:04:41.873Z,19.83
2023-07-29T20:07:08.630Z,19.66
2023-07-29T20:09:35.421Z,19.83
2023-07-29T20:12:02.098Z,19.83
2023-07-29T20:14:28.753Z,19.89
2023-07-29T20:16:55.451Z,19.79
2023-07-29T20:19:22.536Z,19.82
2023-07-29T20:21:49.275Z,19.69
2023-07-29T20:24:16.234Z,19.63
2023-07-29T20:26:42.964Z,19.74
2023-07-29T20:29:10.045Z,19.72
2023-07-29T20:31:37.163Z,19.76
2023-07-29T20:34:04.204Z,19.86
2023-07-29T20:36:31.106Z,19.82
2023-07-29T20:38:58.154Z,19.98
2023-07-29T20:41:25.280Z,19.91
2023-07-29T20:43:55.093Z,19.86
2023-07-29T20:46:23.703Z,19.72
2023-07-29T20:48:51.100Z,19.57
2023-07-29T20:51:19.168Z,19.51
2023-07-29T20:53:46.837Z,19.44
2023-07-29T20:56:14.780Z,19.42
2023-07-29T20:58:41.893Z,19.37
2023-07-29T21:01:08.692Z,19.52
2023-07-29T21:03:35.647Z,19.51
2023-07-29T21:06:02.660Z,19.42
2023-07-29T21:08:29.498Z,19.46
2023-07-29T21:10:56.301Z,19.37
2023-07-29T21:13:23.966Z,19.23
2023-07-29T21:15:58.752Z,19.07
2023-07-29T21:18:26.174Z,18.87
2023-07-29T21:20:53.175Z,18.71
2023-07-29T21:23:20.069Z,18.57
2023-07-29T21:25:49.346Z,18.58
2023-07-29T21:28:16.728Z,18.45
2023-07-29T21:30:43.453Z,18.48
2023-07-29T21:33:10.636Z,18.69
2023-07-29T21:35:37.379Z,18.69
2023-07-29T21:38:15.143Z,18.59
2023-07-29T21:40:51.183Z,18.55
2023-07-29T21:43:18.561Z,18.51
2023-07-29T21:45:46.175Z,18.44
2023-07-29T21:48:12.974Z,18.37
2023-07-29T21:50:39.666Z,18.30
2023-07-29T21:53:06.403Z,18.37
2023-07-29T21:55:33.096Z,18.29
2023-07-29T21:58:02.293Z,18.31
2023-07-29T22:00:29.013Z,18.31
2023-07-29T22:02:56.288Z,18.31
2023-07-29T22:05:23.021Z,18.47
2023-07-29T22:07:49.656Z,18.33
2023-07-29T22:10:16.505Z,18.20
2023-07-29T22:12:45.261Z,18.17
2023-07-29T22:15:11.942Z,18.18
2023-07-29T22:17:38.758Z,18.13
2023-07-29T22:20:06.141Z,18.04
2023-07-29T22:22:32.851Z,17.98
2023-07-29T22:24:59.536Z,17.89
2023-07-29T22:27:26.248Z,18.01
2023-07-29T22:29:53.270Z,18.48
2023-07-29T22:32:20.124Z,18.62
2023-07-29T22:34:46.850Z,18.51
2023-07-29T22:37:13.583Z,18.63
2023-07-29T22:39:41.869Z,18.67
2023-07-29T22:42:08.617Z,18.64
2023-07-29T22:44:35.338Z,18.64
2023-07-29T22:47:02.040Z,18.69
2023-07-29T22:49:30.633Z,18.60
2023-07-29T22:51:57.277Z,18.62
2023-07-29T22:54:24.000Z,18.65
2023-07-29T22:56:50.717Z,18.65
2023-07-29T22:59:17.391Z,18.72
2023-07-29T23:01:44.253Z,18.71
2023-07-29T23:04:11.046Z,18.62
2023-07-29T23:06:38.056Z,18.58
2023-07-29T23:09:04.978Z,18.58
2023-07-29T23:11:31.672Z,18.42
2023-07-29T23:13:58.343Z,18.51
2023-07-29T23:16:25.038Z,18.44
2023-07-29T23:18:51.852Z,18.41
2023-07-29T23:21:18.590Z,18.47
2023-07-29T23:23:45.917Z,18.46
2023-07-29T23:26:12.593Z,18.42
2023-07-29T23:28:39.416Z,18.42
2023-07-29T23:31:06.202Z,18.37
2023-07-29T23:33:33.049Z,18.35
2023-07-29T23:36:01.158Z,18.51
2023-07-29T23:38:28.179Z,18.20
2023-07-29T23:40:54.813Z,18.01
2023-07-29T23:43:21.482Z,17.93
2023-07-29T23:45:48.410Z,17.96
2023-07-29T23:48:15.096Z,17.90
2023-07-29T23:50:41.821Z,17.84
2023-07-29T23:53:08.461Z,17.84
2023-07-29T23:55:35.177Z,17.83
2023-07-29T23:58:01.978Z,17.78
